Time;durP1;ratioP1;P1;durP2;ratioP2;P2;SDS_P1;SDS_P2;PMS_P1;PMS_P2;Temp;Humidity;BMP_temperature;BMP_pressure;BME280_temperature;BME280_humidity;BME280_pressure;Samples;Min_cycle;Max_cycle;Signal;HPM_P1;HPM_P2
2022/08/27 00:00:14;;;;;;;5.47;1.60;;;;;;;19.28;95.13;101689.69;4899031;29;20044;-62
2022/08/27 00:02:42;;;;;;;8.63;2.03;;;;;;;19.24;96.28;101682.25;4890949;29;20053;-63
2022/08/27 00:05:11;;;;;;;7.45;1.60;;;;;;;19.22;96.26;101687.75;4905351;29;20048;-62
2022/08/27 00:07:39;;;;;;;5.68;1.55;;;;;;;19.23;96.47;101683.25;4901393;29;20060;-62
2022/08/27 00:10:08;;;;;;;4.75;1.70;;;;;;;19.21;95.89;101691.44;4889238;29;20054;-62
2022/08/27 00:12:35;;;;;;;5.88;1.77;;;;;;;19.12;97.08;101684.53;4895465;29;20537;-61
2022/08/27 00:15:04;;;;;;;3.53;1.70;;;;;;;19.12;97.01;101681.88;4898369;29;20048;-61
2022/08/27 00:17:32;;;;;;;5.88;1.75;;;;;;;19.07;97.17;101685.09;4895959;29;20067;-62
2022/08/27 00:19:58;;;;;;;5.70;1.77;;;;;;;19.04;96.93;101684.63;4905792;29;20130;-60
2022/08/27 00:22:25;;;;;;;10.35;2.58;;;;;;;18.98;98.29;101678.22;4897168;29;20501;-62
2022/08/27 00:24:51;;;;;;;6.97;2.10;;;;;;;18.92;98.37;101679.75;4889749;29;20448;-62
2022/08/27 00:27:18;;;;;;;4.88;2.10;;;;;;;18.94;98.04;101677.72;4893992;29;20364;-62
2022/08/27 00:29:46;;;;;;;8.10;1.77;;;;;;;18.94;98.12;101674.25;4895065;29;20068;-61
2022/08/27 00:32:12;;;;;;;;;;;;;;;18.99;96.39;101679.84;4898957;29;20135;-61
2022/08/27 00:34:39;;;;;;;5.18;2.00;;;;;;;18.96;96.23;101678.38;4899023;29;20022;-61
2022/08/27 00:37:06;;;;;;;6.70;2.00;;;;;;;18.93;97.02;101669.94;4902982;29;20048;-61
2022/08/27 00:39:35;;;;;;;6.25;1.70;;;;;;;18.92;97.80;101668.31;4896869;29;20740;-61
2022/08/27 00:42:04;;;;;;;5.85;1.33;;;;;;;18.91;97.84;101666.63;4889740;29;20049;-61
2022/08/27 00:44:31;;;;;;;4.22;1.50;;;;;;;18.90;97.53;101671.13;4911444;29;20066;-61
2022/08/27 00:47:04;;;;;;;4.05;1.35;;;;;;;18.92;98.21;101677.09;4901460;29;20102;-60
2022/08/27 00:49:39;;;;;;;6.78;1.88;;;;;;;18.95;98.36;101673.22;4893528;29;20979;-62
2022/08/27 00:52:20;;;;;;;6.13;1.60;;;;;;;18.97;98.11;101671.22;4888636;29;20076;-61
2022/08/27 00:54:50;;;;;;;6.35;1.70;;;;;;;18.99;96.90;101669.22;4900471;29;20059;-61
2022/08/27 00:57:17;;;;;;;4.07;1.85;;;;;;;19.01;95.97;101669.84;4892879;29;20703;-62
2022/08/27 00:59:44;;;;;;;7.22;1.90;;;;;;;19.09;94.88;101668.94;4904128;29;20055;-60
2022/08/27 01:02:20;;;;;;;6.13;1.85;;;;;;;19.09;94.19;101677.78;4908667;29;20609;-62
2022/08/27 01:04:52;;;;;;;5.53;1.80;;;;;;;19.10;95.12;101670.63;4887291;29;20063;-64
2022/08/27 01:07:20;;;;;;;6.60;1.70;;;;;;;19.07;95.81;101670.97;4888748;29;20056;-61
2022/08/27 01:09:47;;;;;;;;;;;;;;;19.12;95.40;101674.72;4895222;29;20056;-62
2022/08/27 01:12:15;;;;;;;3.20;1.30;;;;;;;19.11;95.81;101673.09;4889855;29;19927;-62
2022/08/27 01:14:43;;;;;;;3.40;1.60;;;;;;;19.12;94.68;101669.41;4887549;29;20512;-61
2022/08/27 01:17:12;;;;;;;3.50;1.80;;;;;;;19.12;95.47;101680.03;4896083;29;20052;-61
2022/08/27 01:19:48;;;;;;;4.03;1.58;;;;;;;19.11;96.35;101677.56;4896068;29;20044;-60
2022/08/27 01:22:27;;;;;;;5.30;2.00;;;;;;;19.08;96.54;101677.94;4891248;29;20048;-60
2022/08/27 01:24:57;;;;;;;4.95;2.17;;;;;;;19.01;96.29;101674.34;4903854;29;20794;-61
2022/08/27 01:27:26;;;;;;;5.22;1.88;;;;;;;19.04;95.50;101680.13;4900945;29;20533;-62
2022/08/27 01:29:53;;;;;;;5.13;1.90;;;;;;;19.02;96.70;101674.19;4891432;29;20053;-62
2022/08/27 01:32:24;;;;;;;5.80;1.70;;;;;;;19.05;95.82;101673.81;4888787;29;20052;-62
2022/08/27 01:34:52;;;;;;;6.85;2.00;;;;;;;19.05;95.31;101673.81;4903534;29;20051;-61
2022/08/27 01:37:20;;;;;;;3.72;1.73;;;;;;;19.03;95.01;101665.16;4902647;29;20469;-61
2022/08/27 01:39:50;;;;;;;10.25;1.75;;;;;;;19.10;94.60;101667.94;4902473;29;20767;-61
2022/08/27 01:42:21;;;;;;;4.70;1.85;;;;;;;19.09;95.20;101667.13;4896711;29;20083;-62
2022/08/27 01:44:55;;;;;;;6.43;2.20;;;;;;;19.10;95.02;101668.78;4893336;29;20060;-61
2022/08/27 01:47:24;;;;;;;5.13;2.00;;;;;;;19.10;95.70;101667.94;4902957;29;20052;-62
2022/08/27 01:49:56;;;;;;;6.78;1.88;;;;;;;19.05;96.20;101663.19;4897313;29;20669;-62
2022/08/27 01:52:26;;;;;;;6.45;2.00;;;;;;;19.09;95.99;101674.25;4890530;29;20057;-62
2022/08/27 01:54:53;;;;;;;5.43;2.25;;;;;;;19.03;96.57;101664.34;4894697;29;20056;-62
2022/08/27 01:57:20;;;;;;;5.80;2.05;;;;;;;19.04;96.21;101663.38;4887874;29;20053;-62
2022/08/27 01:59:51;;;;;;;5.25;1.60;;;;;;;19.04;95.40;101661.53;4895464;29;20113;-60
2022/08/27 02:02:18;;;;;;;7.38;2.72;;;;;;;19.08;95.63;101667.31;4891435;29;20352;-61
2022/08/27 02:04:45;;;;;;;8.15;2.33;;;;;;;19.09;95.97;101663.63;4891773;29;20067;-61
2022/08/27 02:07:11;;;;;;;5.10;1.95;;;;;;;19.08;95.47;101665.47;4896891;29;20051;-62
2022/08/27 02:09:38;;;;;;;10.60;2.33;;;;;;;19.09;95.19;101667.13;4900432;29;20059;-62
2022/08/27 02:12:05;;;;;;;4.95;1.80;;;;;;;19.12;95.35;101671.25;4882575;29;20052;-60
2022/08/27 02:14:31;;;;;;;5.28;2.00;;;;;;;19.11;94.67;101665.13;4894438;29;20134;-62
2022/08/27 02:16:58;;;;;;;4.88;1.95;;;;;;;19.12;95.09;101664.09;4898230;29;20065;-61
2022/08/27 02:19:25;;;;;;;6.57;1.67;;;;;;;19.17;95.02;101655.59;4884725;29;20450;-59
2022/08/27 02:21:52;;;;;;;6.13;1.90;;;;;;;19.16;94.77;101649.41;4902067;29;20059;-61
2022/08/27 02:24:18;;;;;;;6.85;1.95;;;;;;;19.16;94.06;101657.41;4889384;29;20079;-62
2022/08/27 02:26:45;;;;;;;4.07;1.90;;;;;;;19.11;92.36;101646.50;4890406;29;20056;-62
2022/08/27 02:29:11;;;;;;;5.57;1.80;;;;;;;19.18;91.95;101654.56;4887997;29;20060;-63
2022/08/27 02:31:40;;;;;;;4.13;1.60;;;;;;;19.20;91.14;101649.06;4899280;29;21047;-61
2022/08/27 02:34:06;;;;;;;5.45;1.80;;;;;;;19.17;91.01;101651.09;4898602;29;20052;-60
2022/08/27 02:36:36;;;;;;;6.63;1.67;;;;;;;19.14;90.75;101651.44;4914538;29;20094;-61
2022/08/27 02:39:05;;;;;;;3.85;1.67;;;;;;;19.17;90.88;101645.75;4891151;29;20056;-61
2022/08/27 02:41:32;;;;;;;4.68;1.90;;;;;;;19.16;90.49;101649.41;4893390;29;20063;-60
2022/08/27 02:43:58;;;;;;;4.78;1.60;;;;;;;19.16;90.79;101648.59;4902734;29;20067;-61
2022/08/27 02:46:27;;;;;;;4.78;1.83;;;;;;;19.14;90.55;101654.09;4878199;29;20083;-62
2022/08/27 02:48:54;;;;;;;4.93;1.60;;;;;;;19.12;90.81;101650.78;4899416;29;20052;-61
2022/08/27 02:51:20;;;;;;;7.18;2.03;;;;;;;19.06;91.54;101648.88;4894891;29;20490;-58
2022/08/27 02:53:47;;;;;;;6.18;1.98;;;;;;;19.04;91.44;101650.06;4902846;29;20048;-61
2022/08/27 02:56:13;;;;;;;3.90;1.73;;;;;;;18.99;92.71;101650.59;4888360;29;20517;-60
2022/08/27 02:58:46;;;;;;;6.88;2.00;;;;;;;18.91;92.59;101645.38;4882875;29;20090;-61
2022/08/27 03:01:14;;;;;;;5.53;1.67;;;;;;;18.89;91.62;101636.75;4894127;29;20558;-59
2022/08/27 03:03:40;;;;;;;7.78;2.35;;;;;;;18.86;92.89;101648.56;4890520;29;20056;-60
2022/08/27 03:06:07;;;;;;;9.10;3.47;;;;;;;18.88;91.90;101654.53;4894720;29;20040;-62
2022/08/27 03:08:33;;;;;;;5.72;2.40;;;;;;;18.83;92.45;101648.13;4893572;29;20056;-60
2022/08/27 03:11:22;;;;;;;5.30;1.88;;;;;;;18.80;92.73;101646.66;4882650;29;20052;-61
2022/08/27 03:13:49;;;;;;;5.43;2.00;;;;;;;18.80;92.81;101640.47;4892534;29;20098;-62
2022/08/27 03:16:15;;;;;;;4.88;2.05;;;;;;;18.73;92.07;101641.19;4885450;29;20057;-60
2022/08/27 03:18:42;;;;;;;5.85;2.03;;;;;;;18.71;91.75;101629.09;4902227;29;20597;-61
2022/08/27 03:21:15;;;;;;;5.35;2.10;;;;;;;18.76;91.85;101634.69;4888084;29;20075;-61
2022/08/27 03:23:42;;;;;;;6.43;2.05;;;;;;;18.64;91.78;101636.13;4899890;29;20576;-60
2022/08/27 03:26:10;;;;;;;8.45;2.47;;;;;;;18.64;91.77;101630.81;4884586;29;20040;-59
2022/08/27 03:28:37;;;;;;;10.60;2.15;;;;;;;18.59;92.48;101641.97;4892989;29;20052;-61
2022/08/27 03:31:11;;;;;;;6.45;2.00;;;;;;;18.63;92.42;101645.13;4899186;29;20133;-61
2022/08/27 03:33:39;;;;;;;4.20;1.63;;;;;;;18.65;92.67;101649.22;4890528;29;20052;-61
2022/08/27 03:36:07;;;;;;;6.30;1.80;;;;;;;18.65;92.61;101648.41;4908353;29;20367;-61
2022/08/27 03:38:34;;;;;;;7.32;2.05;;;;;;;18.65;92.64;101646.56;4895249;29;20512;-61
2022/08/27 03:41:02;;;;;;;6.00;2.03;;;;;;;18.60;93.48;101648.13;4903127;29;20412;-60
2022/08/27 03:43:29;;;;;;;7.47;2.43;;;;;;;18.59;93.19;101647.28;4891344;29;20424;-60
2022/08/27 03:45:55;;;;;;;9.07;4.47;;;;;;;18.58;93.29;101661.56;4897701;29;20850;-60
2022/08/27 03:48:28;;;;;;;7.15;3.00;;;;;;;18.59;94.40;101657.94;4890661;29;20056;-61
2022/08/27 03:50:55;;;;;;;6.03;2.00;;;;;;;18.55;93.04;101659.28;4896349;29;20047;-62
2022/08/27 03:53:21;;;;;;;7.35;2.25;;;;;;;18.56;92.48;101652.94;4902765;29;20054;-61
2022/08/27 03:55:48;;;;;;;5.43;1.73;;;;;;;18.58;92.85;101664.22;4903203;29;20059;-60
2022/08/27 03:58:15;;;;;;;3.05;1.90;;;;;;;18.53;93.06;101655.97;4892388;29;20102;-60
2022/08/27 04:00:42;;;;;;;5.53;2.13;;;;;;;18.49;92.89;101647.53;4890538;29;20143;-61
2022/08/27 04:03:12;;;;;;;4.38;2.00;;;;;;;18.57;93.68;101649.31;4897768;29;20293;-61
2022/08/27 04:05:39;;;;;;;5.90;2.08;;;;;;;18.52;94.22;101649.00;4892527;29;20754;-62
2022/08/27 04:08:08;;;;;;;6.63;2.20;;;;;;;18.50;94.86;101643.03;4900927;29;20103;-62
2022/08/27 04:10:38;;;;;;;;;;;;;;;18.52;94.54;101649.84;4896693;29;20095;-61
2022/08/27 04:13:04;;;;;;;7.40;2.58;;;;;;;18.48;94.98;101658.34;4891175;29;19927;-61
2022/08/27 04:15:31;;;;;;;5.40;2.35;;;;;;;18.46;94.11;101661.16;4907182;29;20456;-63
2022/08/27 04:17:57;;;;;;;4.88;2.08;;;;;;;18.45;95.21;101662.19;4881153;29;20313;-60
2022/08/27 04:20:24;;;;;;;6.13;2.17;;;;;;;18.46;95.61;101666.47;4905395;29;20137;-63
2022/08/27 04:23:01;;;;;;;4.68;2.05;;;;;;;18.40;95.63;101661.88;4898098;29;20062;-61
2022/08/27 04:25:27;;;;;;;6.38;2.50;;;;;;;18.41;95.46;101668.03;4899148;29;20378;-60
2022/08/27 04:27:54;;;;;;;5.10;2.03;;;;;;;18.40;95.12;101661.88;4902849;29;20053;-60
2022/08/27 04:30:20;;;;;;;5.22;2.25;;;;;;;18.41;95.78;101665.38;4890012;29;20664;-60
2022/08/27 04:32:47;;;;;;;6.90;2.30;;;;;;;18.42;95.51;101659.88;4895070;29;20044;-61
2022/08/27 04:35:13;;;;;;;6.75;2.45;;;;;;;18.41;95.19;101660.06;4894327;29;20513;-61
2022/08/27 04:37:40;;;;;;;6.38;2.08;;;;;;;18.36;96.51;101661.41;4918233;29;20064;-61
2022/08/27 04:40:07;;;;;;;4.40;2.20;;;;;;;18.38;96.76;101658.56;4890053;29;20053;-61
2022/08/27 04:42:34;;;;;;;5.83;2.37;;;;;;;18.38;96.50;101671.84;4896913;29;20076;-61
2022/08/27 04:45:01;;;;;;;8.45;2.33;;;;;;;18.27;96.50;101657.19;4896987;29;20059;-60
2022/08/27 04:47:29;;;;;;;7.38;2.75;;;;;;;18.32;97.16;101664.59;4892302;29;20059;-61
2022/08/27 04:49:56;;;;;;;7.93;2.50;;;;;;;18.28;96.27;101656.16;4905471;29;20070;-58
2022/08/27 04:52:22;;;;;;;10.82;2.60;;;;;;;18.26;96.31;101660.00;4891338;29;20249;-59
2022/08/27 04:54:49;;;;;;;10.15;2.30;;;;;;;18.27;96.54;101670.44;4898000;29;20071;-63
2022/08/27 04:57:15;;;;;;;8.38;2.67;;;;;;;18.26;96.43;101668.78;4897887;29;20052;-60
2022/08/27 04:59:42;;;;;;;6.53;2.30;;;;;;;18.25;96.89;101669.81;4898874;29;20158;-60
2022/08/27 05:02:09;;;;;;;4.78;2.50;;;;;;;18.24;97.13;101667.31;4904870;29;20424;-62
2022/08/27 05:04:38;;;;;;;6.95;2.08;;;;;;;18.21;97.09;101667.66;4901720;29;20491;-61
2022/08/27 05:07:07;;;;;;;7.88;2.83;;;;;;;18.14;97.29;101673.69;4897614;29;20454;-62
2022/08/27 05:09:33;;;;;;;7.20;2.95;;;;;;;18.10;97.19;101675.03;4888999;29;20458;-59
2022/08/27 05:12:00;;;;;;;6.53;2.30;;;;;;;18.05;99.40;101681.88;4890269;29;20068;-61
2022/08/27 05:14:31;;;;;;;6.57;2.60;;;;;;;17.98;100.00;101676.44;4894124;29;20167;-60
2022/08/27 05:16:58;;;;;;;8.10;2.40;;;;;;;17.94;100.00;101683.91;4900398;29;20131;-60
2022/08/27 05:19:25;;;;;;;7.00;2.83;;;;;;;17.92;100.00;101688.56;4899456;29;20092;-60
2022/08/27 05:21:52;;;;;;;8.80;2.55;;;;;;;17.87;100.00;101685.59;4898574;29;20052;-62
2022/08/27 05:24:19;;;;;;;5.43;2.45;;;;;;;17.83;100.00;101692.22;4898908;29;20358;-61
2022/08/27 05:26:46;;;;;;;5.72;2.28;;;;;;;17.77;100.00;101685.78;4890423;29;20057;-60
2022/08/27 05:29:13;;;;;;;7.78;2.60;;;;;;;17.72;100.00;101687.28;4897953;29;20048;-61
2022/08/27 05:31:40;;;;;;;5.60;2.28;;;;;;;17.72;100.00;101689.94;4902341;29;20048;-59
2022/08/27 05:34:08;;;;;;;6.30;2.38;;;;;;;17.68;100.00;101691.28;4895792;29;20067;-61
2022/08/27 05:36:40;;;;;;;7.15;2.50;;;;;;;17.63;100.00;101686.50;4906064;29;20148;-61
2022/08/27 05:39:15;;;;;;;5.10;2.42;;;;;;;17.61;100.00;101691.16;4884552;29;20466;-60
2022/08/27 05:41:41;;;;;;;6.05;2.35;;;;;;;17.59;100.00;101675.41;4887585;29;20056;-60
2022/08/27 05:44:09;;;;;;;5.50;2.20;;;;;;;17.63;100.00;101681.22;4888197;29;20769;-61
2022/08/27 05:46:55;;;;;;;5.53;2.42;;;;;;;17.65;100.00;101684.50;4894795;29;20492;-62
2022/08/27 05:49:21;;;;;;;6.82;2.30;;;;;;;17.64;100.00;101682.88;4889262;29;20059;-61
2022/08/27 05:51:48;;;;;;;6.40;2.90;;;;;;;17.70;100.00;101682.19;4896012;29;20627;-61
2022/08/27 05:54:18;;;;;;;6.68;2.58;;;;;;;17.78;100.00;101682.16;4895649;29;20740;-59
2022/08/27 05:56:48;;;;;;;7.55;2.72;;;;;;;17.76;100.00;101684.16;4899052;29;20060;-62
2022/08/27 06:02:01;;;;;;;4.28;2.50;;;;;;;17.83;100.00;101686.91;4884725;29;20048;-61
2022/08/27 06:04:27;;;;;;;11.77;2.78;;;;;;;17.82;100.00;101681.78;4896032;29;20052;-62
2022/08/27 06:06:54;;;;;;;4.70;1.95;;;;;;;17.85;100.00;101679.66;4892980;29;20059;-62
2022/08/27 06:09:23;;;;;;;6.05;2.47;;;;;;;17.90;100.00;101685.28;4893443;29;20053;-61
2022/08/27 06:11:53;;;;;;;4.32;1.83;;;;;;;17.94;100.00;101683.91;4888124;29;20589;-62
2022/08/27 06:14:19;;;;;;;5.57;2.58;;;;;;;17.90;100.00;101687.09;4897986;29;20048;-61
2022/08/27 06:16:47;;;;;;;7.07;2.30;;;;;;;17.91;100.00;101686.09;4903521;29;20062;-61
2022/08/27 06:19:13;;;;;;;6.85;2.33;;;;;;;17.91;100.00;101680.78;4895426;29;20070;-61
2022/08/27 06:21:41;;;;;;;4.97;2.25;;;;;;;17.90;100.00;101693.22;4898038;29;20051;-62
2022/08/27 06:24:08;;;;;;;6.53;2.20;;;;;;;17.96;100.00;101695.19;4888164;29;20052;-61
2022/08/27 06:26:35;;;;;;;6.90;2.40;;;;;;;17.94;100.00;101694.53;4902244;29;20062;-61
2022/08/27 06:29:03;;;;;;;8.52;2.85;;;;;;;17.98;100.00;101692.38;4898234;29;20158;-62
2022/08/27 06:31:30;;;;;;;5.80;2.30;;;;;;;17.98;100.00;101698.50;4902792;29;20831;-62
2022/08/27 06:33:59;;;;;;;6.20;2.10;;;;;;;18.06;100.00;101694.97;4901715;29;20413;-62
2022/08/27 06:36:35;;;;;;;6.05;1.73;;;;;;;18.05;98.55;101690.66;4906576;29;20753;-61
2022/08/27 06:39:03;;;;;;;3.83;1.90;;;;;;;18.12;100.00;101690.78;4890921;29;20056;-61
2022/08/27 06:41:29;;;;;;;6.95;1.88;;;;;;;18.18;98.77;101700.72;4884287;29;20052;-61
2022/08/27 06:43:57;;;;;;;3.67;1.60;;;;;;;18.26;95.74;101699.84;4896280;29;20056;-62
2022/08/27 06:46:25;;;;;;;4.47;1.87;;;;;;;18.32;96.36;101696.47;4891423;29;20293;-62
2022/08/27 06:48:54;;;;;;;4.57;2.03;;;;;;;18.37;95.08;101691.47;4887622;29;20052;-61
2022/08/27 06:51:25;;;;;;;3.80;1.48;;;;;;;18.42;93.18;101693.59;4905637;29;20140;-63
2022/08/27 06:53:54;;;;;;;3.50;1.55;;;;;;;18.41;93.35;101692.78;4896488;29;20730;-62
2022/08/27 06:56:21;;;;;;;7.15;1.42;;;;;;;18.42;93.13;101689.09;4893388;29;20060;-62
2022/08/27 06:58:50;;;;;;;3.75;1.80;;;;;;;18.32;92.31;101688.50;4890899;29;20890;-61
2022/08/27 07:01:21;;;;;;;4.68;1.75;;;;;;;18.38;92.41;101685.13;4903827;29;20055;-60
2022/08/27 07:03:47;;;;;;;4.97;1.80;;;;;;;18.44;92.23;101691.56;4892604;29;20506;-59
2022/08/27 07:06:15;;;;;;;5.88;1.52;;;;;;;18.52;92.49;101696.81;4896260;29;20064;-62
2022/08/27 07:08:42;;;;;;;3.77;1.40;;;;;;;18.51;93.06;101695.19;4910442;29;20278;-60
2022/08/27 07:11:19;;;;;;;6.07;1.80;;;;;;;18.60;92.30;101691.44;4905985;29;20052;-61
2022/08/27 07:13:47;;;;;;;4.10;1.42;;;;;;;18.66;91.28;101689.91;4897334;29;20053;-61
2022/08/27 07:16:17;;;;;;;3.33;1.55;;;;;;;18.66;92.38;101697.88;4890905;29;20058;-61
2022/08/27 07:18:44;;;;;;;4.65;1.85;;;;;;;18.63;93.94;101696.41;4909043;29;20052;-61
2022/08/27 07:21:12;;;;;;;5.65;2.00;;;;;;;18.69;92.84;101687.72;4889178;29;20056;-62
2022/08/27 07:23:38;;;;;;;4.68;1.70;;;;;;;18.78;91.59;101693.81;4904538;29;20062;-61
2022/08/27 07:26:07;;;;;;;4.65;1.60;;;;;;;18.88;91.57;101685.63;4882359;29;20608;-61
2022/08/27 07:28:34;;;;;;;4.22;1.17;;;;;;;18.87;91.42;101689.28;4900892;29;20056;-61
2022/08/27 07:31:01;;;;;;;6.53;2.58;;;;;;;18.91;89.93;101687.91;4907207;29;20060;-61
2022/08/27 07:33:27;;;;;;;5.93;1.67;;;;;;;18.93;90.04;101693.84;4898216;29;20665;-63
2022/08/27 07:35:54;;;;;;;5.75;2.03;;;;;;;19.00;89.91;101696.66;4908757;29;20489;-62
2022/08/27 07:38:20;;;;;;;6.30;1.40;;;;;;;19.03;90.48;101699.75;4903040;29;20094;-61
2022/08/27 07:40:47;;;;;;;6.05;1.42;;;;;;;19.06;88.97;101694.06;4909910;29;20055;-62
2022/08/27 07:46:00;;;;;;;5.63;1.38;;;;;;;19.11;89.12;101694.38;4909846;29;20059;-62
2022/08/27 07:48:28;;;;;;;3.35;1.27;;;;;;;19.14;88.94;101703.81;4910775;29;20541;-62
2022/08/27 07:50:55;;;;;;;6.90;1.70;;;;;;;19.17;88.86;101706.94;4908795;29;20062;-63
2022/08/27 07:53:21;;;;;;;3.15;1.20;;;;;;;19.22;89.41;101702.91;4905195;29;20298;-63
2022/08/27 07:55:48;;;;;;;4.07;1.20;;;;;;;19.26;88.90;101704.19;4898321;29;21062;-62
2022/08/27 07:58:14;;;;;;;7.72;1.35;;;;;;;19.35;88.60;101700.44;4912204;29;20063;-61
2022/08/27 08:00:44;;;;;;;4.45;1.45;;;;;;;19.43;88.17;101707.50;4905262;29;20501;-63
2022/08/27 08:03:11;;;;;;;8.25;1.42;;;;;;;19.54;87.86;101712.34;4896397;29;20051;-62
2022/08/27 08:05:42;;;;;;;6.60;1.38;;;;;;;19.73;86.33;101719.81;4909171;29;20060;-62
2022/08/27 08:08:10;;;;;;;5.18;1.35;;;;;;;19.77;85.25;101711.44;4892995;29;20066;-62
2022/08/27 08:10:38;;;;;;;2.92;0.98;;;;;;;19.81;83.76;101712.72;4910369;29;20059;-62
2022/08/27 08:13:05;;;;;;;3.10;1.10;;;;;;;19.87;83.71;101707.47;4903590;29;20051;-62
2022/08/27 08:15:33;;;;;;;5.50;1.10;;;;;;;19.89;84.17;101710.78;4912048;29;20653;-62
2022/08/27 08:17:59;;;;;;;6.25;1.38;;;;;;;19.92;84.46;101715.75;4894699;29;20058;-62
2022/08/27 08:20:26;;;;;;;3.70;1.30;;;;;;;19.90;83.81;101709.78;4906082;29;20078;-61
2022/08/27 08:23:13;;;;;;;4.15;1.05;;;;;;;20.15;83.15;101704.94;4898554;29;20072;-63
2022/08/27 08:25:40;;;;;;;3.80;1.20;;;;;;;20.34;78.42;101706.16;4905406;29;20052;-62
2022/08/27 08:28:07;;;;;;;5.80;1.20;;;;;;;20.32;75.77;101710.84;4909104;29;20148;-62
2022/08/27 08:30:34;;;;;;;5.40;1.42;;;;;;;20.40;77.11;101712.56;4902748;29;20052;-62
2022/08/27 08:33:01;;;;;;;4.53;1.02;;;;;;;20.52;76.29;101703.06;4911296;29;20162;-62
2022/08/27 08:35:27;;;;;;;3.92;1.17;;;;;;;20.89;75.15;101714.47;4901359;29;20060;-60
2022/08/27 08:38:06;;;;;;;4.75;1.05;;;;;;;21.31;74.60;101714.56;4911774;29;20064;-61
2022/08/27 08:40:40;;;;;;;3.72;1.23;;;;;;;21.48;71.01;101717.78;4904706;29;20055;-62
2022/08/27 08:43:11;;;;;;;2.97;0.82;;;;;;;21.54;71.22;101719.66;4901348;29;20055;-61
2022/08/27 08:45:41;;;;;;;6.05;1.00;;;;;;;21.47;70.55;101716.13;4902703;29;20047;-62
2022/08/27 08:48:13;;;;;;;4.30;1.30;;;;;;;21.61;71.38;101722.38;4900033;29;20048;-61
2022/08/27 08:51:04;;;;;;;4.25;1.13;;;;;;;21.98;69.60;101723.75;4900186;29;20055;-61
2022/08/27 08:53:47;;;;;;;5.28;0.95;;;;;;;21.95;68.18;101716.13;4902512;29;20733;-62
2022/08/27 08:56:23;;;;;;;3.75;1.48;;;;;;;21.97;66.83;101721.28;4910728;29;20052;-61
2022/08/27 08:59:06;;;;;;;4.55;1.30;;;;;;;21.87;67.16;101721.66;4903145;29;20056;-61
2022/08/27 09:01:34;;;;;;;2.47;0.80;;;;;;;21.92;68.44;101721.88;4910000;29;20067;-59
2022/08/27 09:04:07;;;;;;;4.28;1.17;;;;;;;21.94;67.82;101719.84;4879872;29;20143;-62
2022/08/27 09:06:59;;;;;;;3.75;1.05;;;;;;;21.98;66.84;101725.59;4898947;29;20059;-62
2022/08/27 09:09:37;;;;;;;3.90;1.02;;;;;;;21.96;67.61;101719.66;4904065;29;20059;-61
2022/08/27 09:12:18;;;;;;;4.57;1.33;;;;;;;22.25;67.61;101722.03;4908515;29;20048;-62
2022/08/27 09:14:48;;;;;;;4.93;1.25;;;;;;;22.60;67.67;101719.19;4903597;29;20528;-61
2022/08/27 09:17:15;;;;;;;3.58;1.20;;;;;;;22.61;65.46;101720.03;4909082;29;20075;-62
2022/08/27 09:19:42;;;;;;;5.95;1.40;;;;;;;22.55;65.59;101724.31;4904645;29;20504;-61
2022/08/27 09:22:36;;;;;;;4.07;1.02;;;;;;;22.53;65.50;101731.72;4895242;29;20049;-62
2022/08/27 09:25:13;;;;;;;2.50;1.05;;;;;;;22.55;67.63;101735.03;4899847;29;20048;-60
2022/08/27 09:27:47;;;;;;;4.55;1.10;;;;;;;22.48;66.24;101729.69;4901459;29;20056;-60
2022/08/27 09:30:23;;;;;;;3.92;1.05;;;;;;;22.47;66.79;101737.91;4899161;29;20429;-61
2022/08/27 09:33:02;;;;;;;4.35;1.10;;;;;;;22.52;66.30;101732.75;4893870;29;20072;-62
2022/08/27 09:35:41;;;;;;;5.50;1.00;;;;;;;22.50;66.18;101732.97;4909018;29;20517;-61
2022/08/27 09:38:08;;;;;;;5.18;1.50;;;;;;;22.44;66.48;101731.13;4894786;29;20067;-60
2022/08/27 09:40:47;;;;;;;2.78;1.13;;;;;;;22.50;66.65;101732.13;4907250;29;20056;-59
2022/08/27 09:43:27;;;;;;;4.82;1.20;;;;;;;22.72;65.71;101727.44;4899973;29;20159;-61
2022/08/27 09:46:04;;;;;;;3.92;1.23;;;;;;;23.04;64.74;101736.50;4897474;29;20131;-60
2022/08/27 09:48:35;;;;;;;5.68;1.10;;;;;;;23.04;64.38;101722.31;4906046;29;20052;-61
2022/08/27 09:51:19;;;;;;;5.95;1.23;;;;;;;23.42;63.09;101716.25;4881195;29;20055;-61
2022/08/27 09:53:55;;;;;;;4.75;1.40;;;;;;;23.72;61.43;101719.25;4908557;29;20048;-63
2022/08/27 09:56:31;;;;;;;5.22;1.20;;;;;;;24.11;63.23;101720.16;4887435;29;20056;-61
2022/08/27 09:59:09;;;;;;;3.95;1.08;;;;;;;24.13;61.15;101723.44;4901569;29;20056;-62
2022/08/27 10:01:51;;;;;;;3.35;1.23;;;;;;;24.22;60.36;101718.63;4895322;29;20066;-61
2022/08/27 10:04:35;;;;;;;3.58;1.05;;;;;;;24.32;59.69;101710.91;4907920;29;20055;-57
2022/08/27 10:07:40;;;;;;;3.70;1.10;;;;;;;24.85;59.36;101718.63;4891792;29;20056;-62
2022/08/27 10:10:12;;;;;;;3.45;1.15;;;;;;;25.22;59.09;101710.63;4896194;29;20051;-61
2022/08/27 10:12:38;;;;;;;3.22;1.30;;;;;;;25.61;57.06;101705.84;4896600;29;20074;-62
2022/08/27 10:15:05;;;;;;;5.75;1.33;;;;;;;25.53;58.56;101711.53;4900618;29;20052;-62
2022/08/27 10:17:57;;;;;;;3.83;1.10;;;;;;;25.48;58.08;101710.56;4898138;29;20449;-60
2022/08/27 10:20:51;;;;;;;2.60;1.23;;;;;;;25.35;57.83;101704.31;4899742;29;20291;-61
2022/08/27 10:23:23;;;;;;;4.63;1.40;;;;;;;25.22;58.40;101713.31;4894170;29;20557;-61
2022/08/27 10:25:55;;;;;;;3.28;1.20;;;;;;;25.11;58.81;101707.81;4898741;29;20052;-60
2022/08/27 10:29:05;;;;;;;4.60;1.40;;;;;;;25.12;60.23;101715.66;4894847;29;20055;-61
2022/08/27 10:31:50;;;;;;;5.05;1.75;;;;;;;25.05;58.99;101710.38;4904667;29;20056;-61
2022/08/27 10:34:33;;;;;;;3.88;1.30;;;;;;;24.83;60.12;101714.50;4913261;29;20048;-63
2022/08/27 10:37:17;;;;;;;5.13;1.40;;;;;;;24.79;59.84;101719.47;4908764;29;20113;-60
2022/08/27 10:40:14;;;;;;;5.30;1.30;;;;;;;24.60;59.90;101720.44;4907324;29;20056;-61
2022/08/27 10:42:47;;;;;;;4.05;1.33;;;;;;;24.47;61.13;101714.13;4876404;29;20103;-61
2022/08/27 10:45:43;;;;;;;4.30;1.20;;;;;;;24.55;60.72;101718.44;4908112;29;20111;-60
2022/08/27 10:48:15;;;;;;;4.93;1.30;;;;;;;24.66;60.96;101711.56;4896204;29;20108;-60
2022/08/27 10:50:55;;;;;;;5.63;1.30;;;;;;;24.62;60.64;101715.69;4899971;29;20099;-59
2022/08/27 10:53:49;;;;;;;4.05;1.40;;;;;;;24.68;61.14;101717.53;4886614;29;20413;-61
2022/08/27 10:56:34;;;;;;;4.28;1.50;;;;;;;24.80;60.38;101704.22;4901905;29;20219;-59
2022/08/27 10:59:07;;;;;;;7.78;1.40;;;;;;;24.60;57.53;101709.72;4888397;29;20059;-61
2022/08/27 11:01:46;;;;;;;5.32;1.20;;;;;;;24.66;59.18;101706.19;4907026;29;20056;-61
2022/08/27 11:04:29;;;;;;;2.38;1.30;;;;;;;24.62;57.66;101707.63;4898969;29;20056;-61
2022/08/27 11:07:01;;;;;;;6.57;1.90;;;;;;;24.71;59.33;101711.69;4900075;29;20504;-61
2022/08/27 11:09:39;;;;;;;5.20;1.27;;;;;;;25.17;57.90;101706.94;4899872;29;20056;-61
2022/08/27 11:12:09;;;;;;;3.90;1.20;;;;;;;25.47;57.92;101704.38;4902851;29;20070;-61
2022/08/27 11:14:52;;;;;;;5.82;1.42;;;;;;;25.63;57.24;101705.63;4891470;29;20112;-62
2022/08/27 11:18:00;;;;;;;2.83;1.20;;;;;;;25.96;56.33;101699.84;4907980;29;20794;-61
2022/08/27 11:20:58;;;;;;;4.57;1.20;;;;;;;26.12;54.31;101700.28;4892325;29;20056;-62
2022/08/27 11:23:44;;;;;;;4.25;1.30;;;;;;;26.03;54.56;101703.28;4898343;29;20051;-62
2022/08/27 11:26:12;;;;;;;5.28;1.10;;;;;;;25.99;54.85;101701.25;4902017;29;20059;-62
2022/08/27 11:28:59;;;;;;;4.40;1.20;;;;;;;26.13;54.68;101707.28;4910772;29;20065;-63
2022/08/27 11:31:42;;;;;;;;;;;;;;;26.07;55.69;101700.97;4898875;29;20056;-61
2022/08/27 11:34:31;;;;;;;3.83;1.30;;;;;;;26.06;54.22;101698.50;4898734;29;19946;-62
2022/08/27 11:37:33;;;;;;;4.05;1.20;;;;;;;25.87;55.29;101697.69;4902045;29;20150;-59
2022/08/27 11:40:21;;;;;;;6.13;1.50;;;;;;;25.73;55.48;101694.34;4904924;29;20802;-61
2022/08/27 11:42:56;;;;;;;3.08;1.20;;;;;;;25.69;55.74;101696.66;4895181;29;20075;-61
2022/08/27 11:45:33;;;;;;;3.88;1.25;;;;;;;25.62;56.24;101694.06;4907110;29;20064;-62
2022/08/27 11:48:13;;;;;;;5.35;1.40;;;;;;;25.65;56.65;101690.91;4903126;29;20090;-62